createdAt,value
2019-03-04T00:00:36.902Z,7.71
2019-03-04T00:03:08.878Z,7.79
2019-03-04T00:05:40.840Z,7.91
2019-03-04T00:08:12.751Z,7.99
2019-03-04T00:10:44.654Z,7.94
2019-03-04T00:13:16.623Z,7.84
2019-03-04T00:15:48.591Z,7.95
2019-03-04T00:18:20.514Z,7.83
2019-03-04T00:20:52.502Z,7.82
2019-03-04T00:23:24.410Z,7.87
2019-03-04T00:25:56.169Z,7.81
2019-03-04T00:28:28.042Z,7.82
2019-03-04T00:30:59.801Z,7.77
2019-03-04T00:33:31.713Z,7.79
2019-03-04T00:36:03.618Z,7.77
2019-03-04T00:38:35.523Z,7.79
2019-03-04T00:41:07.430Z,7.76
2019-03-04T00:43:39.627Z,7.77
2019-03-04T00:46:11.978Z,7.67
2019-03-04T00:48:54.324Z,7.62
2019-03-04T00:51:26.128Z,7.67
2019-03-04T00:53:58.726Z,7.68
2019-03-04T00:56:30.637Z,7.65
2019-03-04T00:59:02.419Z,7.64
2019-03-04T01:01:34.247Z,7.67
2019-03-04T01:04:06.260Z,7.55
2019-03-04T01:06:38.109Z,7.47
2019-03-04T01:09:14.362Z,7.42
2019-03-04T01:11:46.631Z,7.49
2019-03-04T01:14:18.496Z,7.61
2019-03-04T01:16:50.425Z,7.66
2019-03-04T01:19:22.368Z,7.49
2019-03-04T01:21:54.618Z,7.40
2019-03-04T01:24:26.386Z,7.41
2019-03-04T01:26:58.546Z,7.34
2019-03-04T01:29:30.452Z,7.23
2019-03-04T01:32:02.386Z,7.20
2019-03-04T01:34:34.299Z,7.17
2019-03-04T01:37:06.216Z,7.15
2019-03-04T01:39:37.984Z,7.16
2019-03-04T01:42:09.885Z,7.17
2019-03-04T01:44:41.746Z,7.17
2019-03-04T01:47:13.587Z,7.17
2019-03-04T01:49:45.367Z,7.15
2019-03-04T01:52:17.275Z,7.12
2019-03-04T01:54:49.040Z,7.10
2019-03-04T01:57:20.878Z,7.22
2019-03-04T01:59:52.726Z,7.21
2019-03-04T02:02:24.567Z,7.29
2019-03-04T02:04:56.407Z,7.24
2019-03-04T02:07:28.510Z,7.21
2019-03-04T02:10:00.432Z,7.19
2019-03-04T02:12:34.121Z,7.18
2019-03-04T02:15:06.967Z,7.19
2019-03-04T02:17:38.867Z,7.18
2019-03-04T02:20:13.699Z,7.18
2019-03-04T02:22:45.716Z,7.19
2019-03-04T02:25:18.918Z,7.17
2019-03-04T02:27:54.090Z,7.18
2019-03-04T02:30:27.921Z,7.20
2019-03-04T02:33:00.088Z,7.18
2019-03-04T02:35:32.034Z,7.35
2019-03-04T02:38:03.951Z,7.41
2019-03-04T02:40:35.864Z,7.46
2019-03-04T02:43:07.769Z,7.35
2019-03-04T02:45:39.636Z,7.38
2019-03-04T02:48:11.466Z,7.33
2019-03-04T02:50:43.410Z,7.29
2019-03-04T02:53:15.230Z,7.23
2019-03-04T02:55:47.074Z,7.16
2019-03-04T02:58:18.899Z,7.25
2019-03-04T03:00:51.149Z,7.30
2019-03-04T03:03:22.984Z,7.23
2019-03-04T03:05:54.831Z,7.25
2019-03-04T03:08:26.687Z,7.10
2019-03-04T03:10:58.517Z,7.03
2019-03-04T03:13:30.354Z,7.06
2019-03-04T03:16:02.275Z,7.06
2019-03-04T03:18:34.189Z,6.98
2019-03-04T03:21:06.105Z,6.93
2019-03-04T03:23:38.018Z,6.88
2019-03-04T03:26:11.096Z,6.83
2019-03-04T03:28:43.010Z,6.76
2019-03-04T03:31:14.853Z,6.67
2019-03-04T03:33:46.607Z,6.60
2019-03-04T03:36:18.790Z,6.59
2019-03-04T03:38:50.693Z,6.56
2019-03-04T03:41:22.466Z,6.58
2019-03-04T03:43:54.558Z,6.56
2019-03-04T03:46:26.416Z,6.56
2019-03-04T03:48:58.248Z,6.52
2019-03-04T03:51:30.177Z,6.47
2019-03-04T03:54:02.076Z,6.49
2019-03-04T03:56:33.991Z,6.40
2019-03-04T03:59:05.969Z,6.39
2019-03-04T04:01:37.881Z,6.39
2019-03-04T04:04:09.706Z,6.36
2019-03-04T04:06:41.625Z,6.30
2019-03-04T04:09:13.458Z,6.21
2019-03-04T04:11:45.302Z,6.15
2019-03-04T04:14:17.217Z,6.13
2019-03-04T04:16:49.078Z,6.09
2019-03-04T04:19:20.917Z,6.07
2019-03-04T04:21:52.687Z,6.07
2019-03-04T04:24:24.777Z,5.92
2019-03-04T04:26:57.007Z,5.81
2019-03-04T04:29:28.782Z,5.63
2019-03-04T04:32:00.549Z,5.64
2019-03-04T04:34:32.318Z,5.63
2019-03-04T04:37:04.147Z,5.58
2019-03-04T04:39:35.977Z,5.61
2019-03-04T04:42:08.075Z,5.59
2019-03-04T04:44:40.090Z,5.64
2019-03-04T04:47:12.280Z,5.42
2019-03-04T04:49:44.367Z,5.49
2019-03-04T04:52:16.214Z,5.47
2019-03-04T04:54:48.053Z,5.50
2019-03-04T04:57:20.232Z,5.39
2019-03-04T04:59:52.120Z,5.41
2019-03-04T05:02:24.035Z,5.45
2019-03-04T05:04:56.106Z,5.47
2019-03-04T05:07:29.274Z,5.48
2019-03-04T05:10:01.031Z,5.40
2019-03-04T05:12:33.910Z,5.50
2019-03-04T05:15:07.233Z,5.72
2019-03-04T05:17:39.938Z,5.91
2019-03-04T05:20:15.790Z,6.07
2019-03-04T05:22:47.795Z,6.10
2019-03-04T05:25:19.784Z,6.07
2019-03-04T05:27:51.688Z,6.16
2019-03-04T05:30:24.945Z,6.14
2019-03-04T05:32:56.789Z,6.06
2019-03-04T05:35:28.644Z,5.96
2019-03-04T05:38:01.455Z,5.94
2019-03-04T05:40:33.269Z,5.91
2019-03-04T05:43:05.200Z,5.79
2019-03-04T05:45:37.046Z,5.76
2019-03-04T05:48:08.959Z,5.60
2019-03-04T05:50:40.782Z,5.49
2019-03-04T05:53:12.697Z,5.56
2019-03-04T05:55:44.601Z,5.68
2019-03-04T05:58:16.510Z,5.66
2019-03-04T06:00:48.333Z,5.75
2019-03-04T06:03:20.203Z,5.74
2019-03-04T06:05:52.104Z,5.68
2019-03-04T06:08:23.875Z,5.68
2019-03-04T06:10:55.651Z,5.66
2019-03-04T06:13:27.455Z,5.74
2019-03-04T06:15:59.274Z,5.64
2019-03-04T06:18:31.123Z,5.63
2019-03-04T06:21:02.964Z,5.85
2019-03-04T06:23:34.809Z,5.84
2019-03-04T06:26:06.713Z,5.86
2019-03-04T06:28:38.494Z,6.17
2019-03-04T06:31:10.667Z,5.98
2019-03-04T06:33:42.501Z,5.87
2019-03-04T06:36:14.323Z,5.74
2019-03-04T06:38:46.407Z,5.58
2019-03-04T06:41:18.306Z,5.52
2019-03-04T06:43:50.475Z,5.42
2019-03-04T06:46:22.307Z,5.37
2019-03-04T06:48:54.671Z,5.26
2019-03-04T06:51:35.825Z,5.26
2019-03-04T06:54:41.711Z,5.19
2019-03-04T06:57:38.540Z,5.29
2019-03-04T07:00:55.634Z,5.28
2019-03-04T07:03:34.805Z,5.32
2019-03-04T07:06:06.753Z,5.36
2019-03-04T07:09:13.081Z,5.31
2019-03-04T07:11:46.703Z,5.39
2019-03-04T07:14:18.625Z,5.54
2019-03-04T07:16:51.991Z,5.58
2019-03-04T07:19:25.824Z,5.68
2019-03-04T07:21:57.731Z,5.90
2019-03-04T07:24:30.681Z,5.95
2019-03-04T07:27:02.621Z,6.28
2019-03-04T07:29:34.470Z,6.58
2019-03-04T07:32:06.372Z,6.68
2019-03-04T07:34:38.289Z,6.74
2019-03-04T07:37:11.280Z,6.97
2019-03-04T07:39:43.465Z,7.00
2019-03-04T07:42:15.366Z,7.08
2019-03-04T07:44:47.192Z,7.15
2019-03-04T07:47:19.024Z,7.16
2019-03-04T07:49:51.692Z,7.26
2019-03-04T07:52:23.591Z,7.23
2019-03-04T07:54:55.368Z,7.37
2019-03-04T07:57:27.272Z,7.38
2019-03-04T07:59:59.113Z,7.49
2019-03-04T08:02:30.950Z,7.52
2019-03-04T08:05:02.789Z,7.59
2019-03-04T08:07:43.119Z,7.67
2019-03-04T08:11:25.508Z,7.86
2019-03-04T08:14:00.698Z,8.08
2019-03-04T08:16:32.642Z,8.32
2019-03-04T08:19:04.545Z,8.57
2019-03-04T08:21:36.474Z,8.78
2019-03-04T08:24:08.421Z,9.12
2019-03-04T08:26:40.587Z,9.48
2019-03-04T08:29:12.691Z,9.58
2019-03-04T08:31:44.602Z,9.69
2019-03-04T08:34:16.442Z,9.66
2019-03-04T08:36:48.206Z,9.69
2019-03-04T08:39:20.128Z,9.65
2019-03-04T08:41:52.049Z,9.71
2019-03-04T08:44:23.877Z,9.72
2019-03-04T08:46:56.065Z,9.75
2019-03-04T08:49:29.009Z,9.71
2019-03-04T08:52:01.045Z,9.61
2019-03-04T08:54:32.947Z,9.58
2019-03-04T08:57:04.796Z,9.54
2019-03-04T08:59:36.637Z,9.43
2019-03-04T09:02:09.811Z,9.43
2019-03-04T09:04:41.720Z,9.33
2019-03-04T09:07:13.652Z,9.26
2019-03-04T09:09:45.555Z,9.25
2019-03-04T09:12:17.559Z,9.13
2019-03-04T09:14:49.466Z,8.95
2019-03-04T09:17:21.404Z,8.63
2019-03-04T09:19:53.167Z,8.23
2019-03-04T09:22:25.027Z,7.97
2019-03-04T09:24:56.831Z,7.97
2019-03-04T09:27:28.969Z,8.06
2019-03-04T09:30:00.866Z,7.88
2019-03-04T09:32:33.769Z,7.85
2019-03-04T09:35:07.508Z,7.82
2019-03-04T09:37:39.489Z,7.91
2019-03-04T09:40:15.434Z,7.95
2019-03-04T09:42:47.765Z,8.02
2019-03-04T09:45:19.737Z,8.23
2019-03-04T09:47:51.661Z,8.28
2019-03-04T09:50:24.162Z,8.35
2019-03-04T09:52:56.077Z,8.48
2019-03-04T09:55:28.154Z,8.56
2019-03-04T09:58:00.081Z,8.59
2019-03-04T10:00:55.608Z,8.67
2019-03-04T10:03:53.803Z,8.73
2019-03-04T10:06:59.960Z,8.81
2019-03-04T10:10:23.880Z,8.86
2019-03-04T10:13:45.543Z,8.84
2019-03-04T10:16:54.726Z,8.90
2019-03-04T10:19:58.840Z,8.94
2019-03-04T10:23:09.824Z,8.97
2019-03-04T10:26:46.840Z,9.04
2019-03-04T10:30:07.076Z,9.05
2019-03-04T10:33:48.295Z,9.11
2019-03-04T10:36:57.762Z,9.22
2019-03-04T10:40:15.556Z,9.23
2019-03-04T10:43:15.330Z,9.25
2019-03-04T10:46:38.699Z,9.35
2019-03-04T10:49:11.377Z,9.37
2019-03-04T10:51:43.285Z,9.49
2019-03-04T10:54:15.205Z,9.54
2019-03-04T10:56:47.291Z,9.53
2019-03-04T10:59:19.552Z,9.54
2019-03-04T11:01:51.462Z,9.49
2019-03-04T11:04:23.409Z,9.45
2019-03-04T11:06:55.311Z,9.42
2019-03-04T11:09:27.446Z,9.39
2019-03-04T11:11:59.428Z,9.38
2019-03-04T11:14:31.355Z,9.25
2019-03-04T11:17:03.269Z,9.26
2019-03-04T11:19:35.192Z,9.23
2019-03-04T11:22:07.052Z,9.19
2019-03-04T11:24:39.870Z,9.09
2019-03-04T11:27:11.891Z,8.99
2019-03-04T11:29:43.823Z,8.98
2019-03-04T11:32:15.727Z,8.97
2019-03-04T11:34:47.835Z,8.95
2019-03-04T11:37:19.838Z,8.85
2019-03-04T11:39:58.253Z,8.76
2019-03-04T11:42:30.425Z,8.73
2019-03-04T11:45:02.422Z,8.72
2019-03-04T11:47:35.360Z,8.81
2019-03-04T11:50:11.411Z,8.79
2019-03-04T11:52:43.376Z,8.85
2019-03-04T11:55:15.472Z,8.81
2019-03-04T11:57:47.381Z,8.82
2019-03-04T12:00:27.888Z,8.76
2019-03-04T12:02:59.804Z,8.71
2019-03-04T12:05:31.722Z,8.65
2019-03-04T12:08:03.901Z,8.45
2019-03-04T12:10:36.870Z,8.60
2019-03-04T12:13:08.777Z,8.53
2019-03-04T12:15:40.761Z,8.56
2019-03-04T12:18:13.177Z,8.58
2019-03-04T12:20:45.612Z,8.52
2019-03-04T12:23:17.672Z,8.47
2019-03-04T12:25:49.599Z,8.54
2019-03-04T12:28:22.487Z,8.49
2019-03-04T12:30:54.667Z,8.43
2019-03-04T12:33:26.553Z,8.49
2019-03-04T12:35:58.447Z,8.43
2019-03-04T12:38:31.288Z,8.45
2019-03-04T12:41:03.196Z,8.34
2019-03-04T12:43:35.413Z,8.34
2019-03-04T12:46:07.715Z,8.37
2019-03-04T12:48:39.623Z,8.22
2019-03-04T12:51:22.413Z,8.31
2019-03-04T12:53:46.429Z,8.33
2019-03-04T12:56:18.199Z,8.33
2019-03-04T12:58:49.955Z,8.27
2019-03-04T13:01:21.867Z,8.38
2019-03-04T13:03:53.618Z,8.38
2019-03-04T13:06:25.532Z,8.36
2019-03-04T13:08:57.283Z,8.41
2019-03-04T13:11:29.135Z,8.30
2019-03-04T13:14:01.040Z,8.40
2019-03-04T13:16:32.806Z,8.45
2019-03-04T13:19:04.705Z,8.33
2019-03-04T13:21:36.657Z,8.46
2019-03-04T13:24:08.577Z,8.41
2019-03-04T13:26:40.421Z,8.39
2019-03-04T13:29:12.318Z,8.52
2019-03-04T13:31:44.510Z,8.51
2019-03-04T13:34:17.382Z,8.58
2019-03-04T13:36:49.312Z,8.57
2019-03-04T13:39:21.148Z,8.64
2019-03-04T13:41:52.985Z,8.66
2019-03-04T13:44:24.832Z,8.51
2019-03-04T13:46:56.753Z,8.60
2019-03-04T13:49:28.599Z,8.64
2019-03-04T13:52:00.449Z,8.60
2019-03-04T13:54:32.799Z,8.57
2019-03-04T13:57:04.646Z,8.74
2019-03-04T13:59:36.493Z,9.16
2019-03-04T14:02:08.784Z,9.38
2019-03-04T14:04:40.701Z,9.61
2019-03-04T14:07:12.546Z,9.47
2019-03-04T14:09:44.510Z,9.38
2019-03-04T14:12:16.357Z,9.41
2019-03-04T14:14:48.268Z,9.62
2019-03-04T14:17:20.370Z,9.64
2019-03-04T14:19:52.143Z,9.65
2019-03-04T14:22:23.995Z,9.64
2019-03-04T14:24:55.818Z,9.55
2019-03-04T14:27:27.670Z,9.49
2019-03-04T14:29:59.568Z,9.42
2019-03-04T14:32:31.419Z,9.40
2019-03-04T14:35:03.341Z,9.37
2019-03-04T14:37:35.184Z,9.29
2019-03-04T14:40:08.197Z,9.26
2019-03-04T14:42:40.060Z,9.21
2019-03-04T14:45:15.486Z,9.23
2019-03-04T14:47:47.421Z,9.18
2019-03-04T14:50:19.529Z,9.24
2019-03-04T14:52:51.442Z,9.30
2019-03-04T14:55:23.310Z,9.54
2019-03-04T14:57:55.301Z,9.81
2019-03-04T15:00:35.670Z,10.37
2019-03-04T15:03:07.711Z,10.48
2019-03-04T15:05:41.214Z,10.90
2019-03-04T15:08:13.138Z,10.63
2019-03-04T15:10:44.994Z,10.35
2019-03-04T15:13:17.179Z,10.12
2019-03-04T15:15:49.099Z,10.08
2019-03-04T15:18:21.018Z,9.90
2019-03-04T15:20:52.775Z,9.93
2019-03-04T15:23:24.729Z,9.95
2019-03-04T15:25:56.564Z,9.92
2019-03-04T15:28:28.520Z,9.82
2019-03-04T15:31:00.483Z,9.89
2019-03-04T15:33:32.401Z,9.83
2019-03-04T15:36:04.579Z,9.82
2019-03-04T15:38:36.417Z,9.88
2019-03-04T15:41:08.689Z,9.83
2019-03-04T15:43:40.873Z,9.74
2019-03-04T15:46:12.845Z,9.73
2019-03-04T15:48:44.756Z,9.69
2019-03-04T15:51:16.585Z,9.78
2019-03-04T15:53:48.512Z,9.74
2019-03-04T15:56:20.349Z,9.74
2019-03-04T15:58:52.473Z,9.61
2019-03-04T16:01:25.847Z,9.50
2019-03-04T16:03:57.699Z,9.45
2019-03-04T16:06:29.576Z,9.35
2019-03-04T16:09:01.622Z,9.28
2019-03-04T16:11:35.180Z,8.68
2019-03-04T16:14:07.086Z,7.52
2019-03-04T16:16:39.108Z,6.22
2019-03-04T16:19:11.727Z,5.62
2019-03-04T16:21:43.740Z,4.82
2019-03-04T16:24:15.741Z,4.48
2019-03-04T16:26:47.626Z,4.41
2019-03-04T16:29:19.595Z,4.37
2019-03-04T16:31:51.549Z,4.40
2019-03-04T16:34:23.570Z,4.16
2019-03-04T16:36:55.568Z,4.17
2019-03-04T16:39:27.507Z,4.12
2019-03-04T16:41:59.738Z,4.22
2019-03-04T16:44:31.814Z,4.11
2019-03-04T16:47:03.765Z,4.20
2019-03-04T16:49:35.701Z,4.05
2019-03-04T16:52:09.810Z,4.29
2019-03-04T16:54:41.618Z,4.35
2019-03-04T16:57:15.149Z,4.28
2019-03-04T16:59:47.108Z,4.43
2019-03-04T17:02:19.063Z,4.33
2019-03-04T17:04:51.344Z,4.36
2019-03-04T17:07:23.196Z,4.49
2019-03-04T17:09:55.163Z,4.43
2019-03-04T17:12:27.125Z,4.23
2019-03-04T17:14:59.296Z,4.31
2019-03-04T17:17:31.407Z,4.42
2019-03-04T17:20:03.382Z,4.49
2019-03-04T17:22:37.251Z,4.39
2019-03-04T17:25:09.796Z,4.35
2019-03-04T17:27:41.740Z,4.36
2019-03-04T17:30:16.140Z,4.60
2019-03-04T17:32:48.427Z,4.52
2019-03-04T17:35:20.374Z,4.50
2019-03-04T17:37:52.484Z,4.46
2019-03-04T17:40:24.507Z,4.40
2019-03-04T17:42:56.504Z,4.41
2019-03-04T17:45:28.936Z,4.38
2019-03-04T17:48:01.540Z,4.43
2019-03-04T17:50:35.753Z,4.34
2019-03-04T17:53:08.770Z,4.32
2019-03-04T17:55:40.693Z,4.50
2019-03-04T17:58:12.626Z,4.58
2019-03-04T18:00:47.930Z,4.46
2019-03-04T18:03:19.842Z,4.55
2019-03-04T18:05:52.263Z,4.42
2019-03-04T18:08:24.135Z,4.52
2019-03-04T18:10:56.221Z,4.45
2019-03-04T18:13:28.146Z,4.35
2019-03-04T18:16:00.227Z,4.45
2019-03-04T18:18:33.134Z,4.22
2019-03-04T18:21:05.297Z,4.32
2019-03-04T18:23:37.331Z,4.29
2019-03-04T18:26:18.068Z,4.14
2019-03-04T18:29:42.817Z,4.20
2019-03-04T18:33:43.371Z,3.98
2019-03-04T18:36:55.713Z,4.01
2019-03-04T18:40:28.083Z,3.83
2019-03-04T18:43:25.571Z,4.02
2019-03-04T18:46:51.367Z,3.98
2019-03-04T18:49:23.408Z,3.74
2019-03-04T18:51:55.369Z,3.94
2019-03-04T18:54:27.254Z,3.91
2019-03-04T18:56:59.197Z,3.71
2019-03-04T18:59:31.062Z,3.95
2019-03-04T19:02:03.022Z,3.92
2019-03-04T19:04:35.212Z,3.79
2019-03-04T19:07:07.283Z,3.89
2019-03-04T19:09:39.195Z,3.79
2019-03-04T19:12:11.567Z,3.97
2019-03-04T19:14:43.560Z,3.94
2019-03-04T19:17:15.599Z,4.03
2019-03-04T19:19:47.634Z,3.94
2019-03-04T19:22:20.454Z,3.78
2019-03-04T19:24:52.520Z,3.99
2019-03-04T19:27:24.562Z,3.76
2019-03-04T19:29:56.520Z,3.90
2019-03-04T19:32:28.551Z,3.91
2019-03-04T19:35:00.817Z,3.70
2019-03-04T19:37:34.420Z,3.89
2019-03-04T19:40:06.670Z,3.77
2019-03-04T19:42:39.739Z,3.51
2019-03-04T19:45:14.316Z,3.45
2019-03-04T19:47:46.283Z,3.71
2019-03-04T19:50:18.452Z,3.48
2019-03-04T19:52:50.698Z,3.71
2019-03-04T19:55:22.875Z,3.71
2019-03-04T19:57:54.897Z,3.52
2019-03-04T20:00:28.994Z,3.61
2019-03-04T20:03:00.963Z,3.45
2019-03-04T20:05:33.311Z,3.60
2019-03-04T20:08:05.547Z,3.26
2019-03-04T20:10:37.527Z,3.38
2019-03-04T20:13:09.908Z,3.21
2019-03-04T20:15:42.149Z,3.35
2019-03-04T20:18:14.147Z,3.16
2019-03-04T20:20:46.379Z,3.26
2019-03-04T20:23:18.417Z,3.36
2019-03-04T20:25:52.005Z,3.23
2019-03-04T20:28:24.044Z,3.35
2019-03-04T20:30:56.003Z,3.41
2019-03-04T20:33:28.188Z,3.20
2019-03-04T20:36:00.428Z,3.36
2019-03-04T20:38:36.992Z,3.49
2019-03-04T20:41:09.149Z,3.49
2019-03-04T20:43:40.996Z,3.51
2019-03-04T20:46:13.093Z,3.29
2019-03-04T20:48:44.973Z,3.47
2019-03-04T20:51:16.992Z,3.45
2019-03-04T20:53:48.937Z,3.42
2019-03-04T20:56:20.883Z,3.37
2019-03-04T20:58:52.896Z,3.31
2019-03-04T21:01:25.037Z,3.26
2019-03-04T21:03:57.107Z,3.33
2019-03-04T21:06:29.250Z,3.23
2019-03-04T21:09:01.643Z,3.26
2019-03-04T21:11:35.398Z,3.34
2019-03-04T21:14:07.591Z,3.45
2019-03-04T21:16:39.861Z,3.34
2019-03-04T21:19:12.025Z,3.54
2019-03-04T21:21:44.515Z,3.41
2019-03-04T21:24:16.559Z,3.55
2019-03-04T21:26:50.399Z,3.47
2019-03-04T21:30:11.630Z,3.48
2019-03-04T21:33:00.893Z,3.58
2019-03-04T21:36:03.430Z,3.42
2019-03-04T21:38:36.029Z,3.42
2019-03-04T21:41:51.289Z,3.42
2019-03-04T21:45:22.022Z,3.42
2019-03-04T21:48:08.952Z,3.36
2019-03-04T21:50:52.050Z,3.39
2019-03-04T21:53:31.956Z,3.27
2019-03-04T21:57:04.996Z,3.35
2019-03-04T21:59:36.924Z,3.04
2019-03-04T22:02:18.048Z,3.36
2019-03-04T22:04:50.122Z,3.20
2019-03-04T22:07:22.324Z,3.36
2019-03-04T22:09:54.544Z,3.11
2019-03-04T22:12:26.503Z,3.38
2019-03-04T22:14:58.567Z,3.49
2019-03-04T22:17:31.631Z,3.32
2019-03-04T22:20:03.747Z,3.36
2019-03-04T22:22:35.946Z,3.45
2019-03-04T22:25:09.324Z,3.40
2019-03-04T22:27:41.439Z,3.36
2019-03-04T22:30:15.909Z,3.27
2019-03-04T22:32:48.305Z,3.29
2019-03-04T22:35:20.511Z,2.99
2019-03-04T22:37:52.352Z,3.12
2019-03-04T22:40:25.155Z,3.01
2019-03-04T22:42:57.246Z,2.93
2019-03-04T22:45:29.578Z,2.83
2019-03-04T22:48:01.616Z,2.87
2019-03-04T22:50:34.600Z,2.59
2019-03-04T22:53:06.715Z,2.80
2019-03-04T22:55:39.212Z,2.72
2019-03-04T22:58:11.346Z,2.56
2019-03-04T23:01:36.685Z,2.67
2019-03-04T23:04:51.227Z,2.27
2019-03-04T23:07:45.340Z,2.54
2019-03-04T23:10:47.527Z,2.58
2019-03-04T23:13:52.948Z,2.41
2019-03-04T23:16:28.875Z,2.34
2019-03-04T23:19:00.893Z,2.37
2019-03-04T23:21:33.129Z,2.46
2019-03-04T23:24:06.674Z,2.23
2019-03-04T23:26:38.763Z,2.39
2019-03-04T23:29:10.686Z,2.49
2019-03-04T23:31:42.731Z,2.42
2019-03-04T23:34:14.767Z,2.45
2019-03-04T23:36:46.810Z,2.58
2019-03-04T23:39:19.884Z,2.28
2019-03-04T23:41:51.888Z,2.44
2019-03-04T23:44:24.365Z,2.45
2019-03-04T23:46:56.447Z,2.50
2019-03-04T23:49:28.778Z,2.57
2019-03-04T23:52:00.814Z,2.68
2019-03-04T23:54:32.770Z,2.72
2019-03-04T23:57:04.627Z,2.74
2019-03-04T23:59:36.635Z,2.73
